sensor_id;sensor_type;location;lat;lon;timestamp;P1;durP1;ratioP1;P2;durP2;ratioP2
938;SDS011;456;53.584;9.968;2023-07-02T00:02:19;2.20;;;2.00;;
938;SDS011;456;53.584;9.968;2023-07-02T00:04:46;2.90;;;2.70;;
938;SDS011;456;53.584;9.968;2023-07-02T00:07:12;2.47;;;2.10;;
938;SDS011;456;53.584;9.968;2023-07-02T00:09:38;2.40;;;2.20;;
938;SDS011;456;53.584;9.968;2023-07-02T00:12:03;2.53;;;2.20;;
938;SDS011;456;53.584;9.968;2023-07-02T00:14:29;3.27;;;2.20;;
938;SDS011;456;53.584;9.968;2023-07-02T00:16:55;2.40;;;2.20;;
938;SDS011;456;53.584;9.968;2023-07-02T00:19:20;2.67;;;2.17;;
938;SDS011;456;53.584;9.968;2023-07-02T00:21:46;2.30;;;2.20;;
938;SDS011;456;53.584;9.968;2023-07-02T00:24:12;4.20;;;2.43;;
938;SDS011;456;53.584;9.968;2023-07-02T00:26:38;2.20;;;2.00;;
938;SDS011;456;53.584;9.968;2023-07-02T00:29:05;2.17;;;1.97;;
938;SDS011;456;53.584;9.968;2023-07-02T00:31:32;2.43;;;2.23;;
938;SDS011;456;53.584;9.968;2023-07-02T00:33:58;2.30;;;2.10;;
938;SDS011;456;53.584;9.968;2023-07-02T00:36:26;3.03;;;2.30;;
938;SDS011;456;53.584;9.968;2023-07-02T00:38:52;2.73;;;2.23;;
938;SDS011;456;53.584;9.968;2023-07-02T00:41:18;2.00;;;1.90;;
938;SDS011;456;53.584;9.968;2023-07-02T00:43:44;2.93;;;2.67;;
938;SDS011;456;53.584;9.968;2023-07-02T00:46:14;3.43;;;2.30;;
938;SDS011;456;53.584;9.968;2023-07-02T00:48:51;2.57;;;2.37;;
938;SDS011;456;53.584;9.968;2023-07-02T00:51:19;2.70;;;2.13;;
938;SDS011;456;53.584;9.968;2023-07-02T00:53:45;2.67;;;1.87;;
938;SDS011;456;53.584;9.968;2023-07-02T00:56:12;2.90;;;2.53;;
938;SDS011;456;53.584;9.968;2023-07-02T00:58:39;2.00;;;1.90;;
938;SDS011;456;53.584;9.968;2023-07-02T01:01:05;2.33;;;2.20;;
938;SDS011;456;53.584;9.968;2023-07-02T01:03:32;2.50;;;2.30;;
938;SDS011;456;53.584;9.968;2023-07-02T01:06:02;2.63;;;2.03;;
938;SDS011;456;53.584;9.968;2023-07-02T01:08:28;3.53;;;2.30;;
938;SDS011;456;53.584;9.968;2023-07-02T01:10:54;2.50;;;2.30;;
938;SDS011;456;53.584;9.968;2023-07-02T01:13:21;2.40;;;2.20;;
938;SDS011;456;53.584;9.968;2023-07-02T01:15:47;2.60;;;2.40;;
938;SDS011;456;53.584;9.968;2023-07-02T01:18:14;2.80;;;2.60;;
938;SDS011;456;53.584;9.968;2023-07-02T01:20:40;3.13;;;2.53;;
938;SDS011;456;53.584;9.968;2023-07-02T01:23:07;1.90;;;1.80;;
938;SDS011;456;53.584;9.968;2023-07-02T01:25:34;2.53;;;2.10;;
938;SDS011;456;53.584;9.968;2023-07-02T01:28:01;2.47;;;2.27;;
938;SDS011;456;53.584;9.968;2023-07-02T01:30:27;4.30;;;2.47;;
938;SDS011;456;53.584;9.968;2023-07-02T01:32:53;2.67;;;1.80;;
938;SDS011;456;53.584;9.968;2023-07-02T01:35:19;1.97;;;1.83;;
938;SDS011;456;53.584;9.968;2023-07-02T01:37:46;8.07;;;2.40;;
938;SDS011;456;53.584;9.968;2023-07-02T01:40:12;2.67;;;2.47;;
938;SDS011;456;53.584;9.968;2023-07-02T01:42:38;4.20;;;2.90;;
938;SDS011;456;53.584;9.968;2023-07-02T01:45:04;2.33;;;2.07;;
938;SDS011;456;53.584;9.968;2023-07-02T01:47:30;2.50;;;2.30;;
938;SDS011;456;53.584;9.968;2023-07-02T01:49:56;3.20;;;2.23;;
938;SDS011;456;53.584;9.968;2023-07-02T01:52:22;2.63;;;1.90;;
938;SDS011;456;53.584;9.968;2023-07-02T01:54:48;2.90;;;2.30;;
938;SDS011;456;53.584;9.968;2023-07-02T01:57:14;3.67;;;2.50;;
938;SDS011;456;53.584;9.968;2023-07-02T01:59:40;2.50;;;2.30;;
938;SDS011;456;53.584;9.968;2023-07-02T02:02:06;2.47;;;2.00;;
938;SDS011;456;53.584;9.968;2023-07-02T02:04:32;2.80;;;2.27;;
938;SDS011;456;53.584;9.968;2023-07-02T02:06:58;1.93;;;1.80;;
938;SDS011;456;53.584;9.968;2023-07-02T02:09:24;2.30;;;2.20;;
938;SDS011;456;53.584;9.968;2023-07-02T02:11:53;2.20;;;2.00;;
938;SDS011;456;53.584;9.968;2023-07-02T02:14:19;2.33;;;2.13;;
938;SDS011;456;53.584;9.968;2023-07-02T02:16:46;2.53;;;2.33;;
938;SDS011;456;53.584;9.968;2023-07-02T02:19:12;2.63;;;2.43;;
938;SDS011;456;53.584;9.968;2023-07-02T02:21:40;2.43;;;2.13;;
938;SDS011;456;53.584;9.968;2023-07-02T02:24:06;2.50;;;2.30;;
938;SDS011;456;53.584;9.968;2023-07-02T02:26:33;4.60;;;2.50;;
938;SDS011;456;53.584;9.968;2023-07-02T02:28:59;2.70;;;2.50;;
938;SDS011;456;53.584;9.968;2023-07-02T02:31:25;3.03;;;2.73;;
938;SDS011;456;53.584;9.968;2023-07-02T02:33:51;3.10;;;2.50;;
938;SDS011;456;53.584;9.968;2023-07-02T02:36:17;2.80;;;2.60;;
938;SDS011;456;53.584;9.968;2023-07-02T02:38:43;3.83;;;2.67;;
938;SDS011;456;53.584;9.968;2023-07-02T02:41:09;3.80;;;2.47;;
938;SDS011;456;53.584;9.968;2023-07-02T02:43:35;3.03;;;2.47;;
938;SDS011;456;53.584;9.968;2023-07-02T02:46:01;2.60;;;2.40;;
938;SDS011;456;53.584;9.968;2023-07-02T02:48:27;2.20;;;2.00;;
938;SDS011;456;53.584;9.968;2023-07-02T02:50:52;2.10;;;1.97;;
938;SDS011;456;53.584;9.968;2023-07-02T02:53:18;2.20;;;2.00;;
938;SDS011;456;53.584;9.968;2023-07-02T02:55:44;2.80;;;2.60;;
938;SDS011;456;53.584;9.968;2023-07-02T02:58:10;2.50;;;2.30;;
938;SDS011;456;53.584;9.968;2023-07-02T03:00:36;3.20;;;2.70;;
938;SDS011;456;53.584;9.968;2023-07-02T03:03:03;2.60;;;2.37;;
938;SDS011;456;53.584;9.968;2023-07-02T03:05:29;2.60;;;2.40;;
938;SDS011;456;53.584;9.968;2023-07-02T03:07:55;2.67;;;2.47;;
938;SDS011;456;53.584;9.968;2023-07-02T03:10:22;2.50;;;2.30;;
938;SDS011;456;53.584;9.968;2023-07-02T03:12:48;3.10;;;2.80;;
938;SDS011;456;53.584;9.968;2023-07-02T03:15:14;3.00;;;2.30;;
938;SDS011;456;53.584;9.968;2023-07-02T03:17:40;2.50;;;2.23;;
938;SDS011;456;53.584;9.968;2023-07-02T03:20:06;5.67;;;2.47;;
938;SDS011;456;53.584;9.968;2023-07-02T03:22:33;2.80;;;2.60;;
938;SDS011;456;53.584;9.968;2023-07-02T03:24:59;2.70;;;2.50;;
938;SDS011;456;53.584;9.968;2023-07-02T03:27:26;2.63;;;2.43;;
938;SDS011;456;53.584;9.968;2023-07-02T03:29:52;2.40;;;2.20;;
938;SDS011;456;53.584;9.968;2023-07-02T03:32:18;3.37;;;2.80;;
938;SDS011;456;53.584;9.968;2023-07-02T03:34:44;4.13;;;2.23;;
938;SDS011;456;53.584;9.968;2023-07-02T03:37:10;2.73;;;2.53;;
938;SDS011;456;53.584;9.968;2023-07-02T03:39:36;2.67;;;2.47;;
938;SDS011;456;53.584;9.968;2023-07-02T03:42:04;3.63;;;2.70;;
938;SDS011;456;53.584;9.968;2023-07-02T03:44:30;3.77;;;2.53;;
938;SDS011;456;53.584;9.968;2023-07-02T03:46:56;2.90;;;2.60;;
938;SDS011;456;53.584;9.968;2023-07-02T03:49:22;3.37;;;2.80;;
938;SDS011;456;53.584;9.968;2023-07-02T03:51:48;3.43;;;2.60;;
938;SDS011;456;53.584;9.968;2023-07-02T03:54:14;3.50;;;2.90;;
938;SDS011;456;53.584;9.968;2023-07-02T03:56:40;3.93;;;3.00;;
938;SDS011;456;53.584;9.968;2023-07-02T03:59:06;3.63;;;2.70;;
938;SDS011;456;53.584;9.968;2023-07-02T04:01:32;4.03;;;2.87;;
938;SDS011;456;53.584;9.968;2023-07-02T04:03:58;3.00;;;2.70;;
938;SDS011;456;53.584;9.968;2023-07-02T04:06:24;4.77;;;3.70;;
938;SDS011;456;53.584;9.968;2023-07-02T04:08:50;3.50;;;3.20;;
938;SDS011;456;53.584;9.968;2023-07-02T04:11:16;2.90;;;2.63;;
938;SDS011;456;53.584;9.968;2023-07-02T04:13:42;2.80;;;2.60;;
938;SDS011;456;53.584;9.968;2023-07-02T04:16:08;4.93;;;3.33;;
938;SDS011;456;53.584;9.968;2023-07-02T04:18:34;3.20;;;2.90;;
938;SDS011;456;53.584;9.968;2023-07-02T04:21:01;3.57;;;3.27;;
938;SDS011;456;53.584;9.968;2023-07-02T04:23:27;4.30;;;3.27;;
938;SDS011;456;53.584;9.968;2023-07-02T04:25:53;5.23;;;3.77;;
938;SDS011;456;53.584;9.968;2023-07-02T04:28:19;4.77;;;2.90;;
938;SDS011;456;53.584;9.968;2023-07-02T04:30:45;4.57;;;2.97;;
938;SDS011;456;53.584;9.968;2023-07-02T04:33:14;3.83;;;2.80;;
938;SDS011;456;53.584;9.968;2023-07-02T04:35:40;3.70;;;3.40;;
938;SDS011;456;53.584;9.968;2023-07-02T04:38:06;4.57;;;3.40;;
938;SDS011;456;53.584;9.968;2023-07-02T04:40:32;3.80;;;3.37;;
938;SDS011;456;53.584;9.968;2023-07-02T04:42:58;3.77;;;3.40;;
938;SDS011;456;53.584;9.968;2023-07-02T04:45:25;3.80;;;3.40;;
938;SDS011;456;53.584;9.968;2023-07-02T04:47:51;4.10;;;3.10;;
938;SDS011;456;53.584;9.968;2023-07-02T04:50:18;4.77;;;3.77;;
938;SDS011;456;53.584;9.968;2023-07-02T04:52:44;3.83;;;3.40;;
938;SDS011;456;53.584;9.968;2023-07-02T04:55:10;4.60;;;4.03;;
938;SDS011;456;53.584;9.968;2023-07-02T04:57:36;4.30;;;3.83;;
938;SDS011;456;53.584;9.968;2023-07-02T05:00:03;4.50;;;3.90;;
938;SDS011;456;53.584;9.968;2023-07-02T05:02:30;4.10;;;3.67;;
938;SDS011;456;53.584;9.968;2023-07-02T05:04:56;5.13;;;3.63;;
938;SDS011;456;53.584;9.968;2023-07-02T05:07:22;5.33;;;3.50;;
938;SDS011;456;53.584;9.968;2023-07-02T05:09:48;5.90;;;4.30;;
938;SDS011;456;53.584;9.968;2023-07-02T05:12:16;6.83;;;5.10;;
938;SDS011;456;53.584;9.968;2023-07-02T05:14:42;7.20;;;4.37;;
938;SDS011;456;53.584;9.968;2023-07-02T05:17:08;9.43;;;4.80;;
938;SDS011;456;53.584;9.968;2023-07-02T05:19:34;5.00;;;4.60;;
938;SDS011;456;53.584;9.968;2023-07-02T05:22:00;5.53;;;5.00;;
938;SDS011;456;53.584;9.968;2023-07-02T05:24:26;5.00;;;4.13;;
938;SDS011;456;53.584;9.968;2023-07-02T05:26:52;5.53;;;4.50;;
938;SDS011;456;53.584;9.968;2023-07-02T05:29:18;4.50;;;4.10;;
938;SDS011;456;53.584;9.968;2023-07-02T05:31:44;6.90;;;4.33;;
938;SDS011;456;53.584;9.968;2023-07-02T05:34:10;6.40;;;4.00;;
938;SDS011;456;53.584;9.968;2023-07-02T05:36:37;4.97;;;4.10;;
938;SDS011;456;53.584;9.968;2023-07-02T05:39:03;8.87;;;5.07;;
938;SDS011;456;53.584;9.968;2023-07-02T05:41:29;6.17;;;4.63;;
938;SDS011;456;53.584;9.968;2023-07-02T05:43:58;5.50;;;4.73;;
938;SDS011;456;53.584;9.968;2023-07-02T05:46:24;5.43;;;4.70;;
938;SDS011;456;53.584;9.968;2023-07-02T05:48:50;8.27;;;5.33;;
938;SDS011;456;53.584;9.968;2023-07-02T05:51:20;5.37;;;4.13;;
938;SDS011;456;53.584;9.968;2023-07-02T05:53:46;9.47;;;5.57;;
938;SDS011;456;53.584;9.968;2023-07-02T05:56:12;5.63;;;4.17;;
938;SDS011;456;53.584;9.968;2023-07-02T05:58:38;7.37;;;4.40;;
938;SDS011;456;53.584;9.968;2023-07-02T06:01:04;6.00;;;5.10;;
938;SDS011;456;53.584;9.968;2023-07-02T06:03:31;6.93;;;4.43;;
938;SDS011;456;53.584;9.968;2023-07-02T06:05:57;6.00;;;5.27;;
938;SDS011;456;53.584;9.968;2023-07-02T06:08:23;10.43;;;5.97;;
938;SDS011;456;53.584;9.968;2023-07-02T06:10:49;7.60;;;5.07;;
938;SDS011;456;53.584;9.968;2023-07-02T06:13:16;5.70;;;5.00;;
938;SDS011;456;53.584;9.968;2023-07-02T06:15:42;6.83;;;5.57;;
938;SDS011;456;53.584;9.968;2023-07-02T06:18:08;8.53;;;4.97;;
938;SDS011;456;53.584;9.968;2023-07-02T06:20:34;7.53;;;6.43;;
938;SDS011;456;53.584;9.968;2023-07-02T06:23:00;7.57;;;5.00;;
938;SDS011;456;53.584;9.968;2023-07-02T06:25:26;5.80;;;5.17;;
938;SDS011;456;53.584;9.968;2023-07-02T06:27:52;16.00;;;5.67;;
938;SDS011;456;53.584;9.968;2023-07-02T06:30:21;6.60;;;5.60;;
938;SDS011;456;53.584;9.968;2023-07-02T06:32:47;9.17;;;6.13;;
938;SDS011;456;53.584;9.968;2023-07-02T06:35:13;11.03;;;6.17;;
938;SDS011;456;53.584;9.968;2023-07-02T06:37:39;7.80;;;5.63;;
938;SDS011;456;53.584;9.968;2023-07-02T06:40:06;8.30;;;6.20;;
938;SDS011;456;53.584;9.968;2023-07-02T06:42:32;10.77;;;6.30;;
938;SDS011;456;53.584;9.968;2023-07-02T06:44:58;10.90;;;6.20;;
938;SDS011;456;53.584;9.968;2023-07-02T06:47:24;12.27;;;6.43;;
938;SDS011;456;53.584;9.968;2023-07-02T06:49:51;9.40;;;5.77;;
938;SDS011;456;53.584;9.968;2023-07-02T06:52:17;8.80;;;5.97;;
938;SDS011;456;53.584;9.968;2023-07-02T06:54:43;9.70;;;6.23;;
938;SDS011;456;53.584;9.968;2023-07-02T06:57:09;7.97;;;6.10;;
938;SDS011;456;53.584;9.968;2023-07-02T06:59:35;11.47;;;6.80;;
938;SDS011;456;53.584;9.968;2023-07-02T07:02:02;7.97;;;5.57;;
938;SDS011;456;53.584;9.968;2023-07-02T07:04:28;9.60;;;6.87;;
938;SDS011;456;53.584;9.968;2023-07-02T07:06:54;8.27;;;6.10;;
938;SDS011;456;53.584;9.968;2023-07-02T07:09:23;8.20;;;6.63;;
938;SDS011;456;53.584;9.968;2023-07-02T07:11:50;9.70;;;7.07;;
938;SDS011;456;53.584;9.968;2023-07-02T07:14:16;7.37;;;5.80;;
938;SDS011;456;53.584;9.968;2023-07-02T07:16:42;10.70;;;6.63;;
938;SDS011;456;53.584;9.968;2023-07-02T07:19:08;9.13;;;7.30;;
938;SDS011;456;53.584;9.968;2023-07-02T07:21:34;8.43;;;6.20;;
938;SDS011;456;53.584;9.968;2023-07-02T07:24:00;9.40;;;6.83;;
938;SDS011;456;53.584;9.968;2023-07-02T07:26:26;9.23;;;6.70;;
938;SDS011;456;53.584;9.968;2023-07-02T07:28:52;8.60;;;5.90;;
938;SDS011;456;53.584;9.968;2023-07-02T07:31:21;9.80;;;7.60;;
938;SDS011;456;53.584;9.968;2023-07-02T07:33:47;8.43;;;6.40;;
938;SDS011;456;53.584;9.968;2023-07-02T07:36:13;8.07;;;6.50;;
938;SDS011;456;53.584;9.968;2023-07-02T07:38:39;8.63;;;6.77;;
938;SDS011;456;53.584;9.968;2023-07-02T07:41:05;9.50;;;7.00;;
938;SDS011;456;53.584;9.968;2023-07-02T07:43:31;8.73;;;6.97;;
938;SDS011;456;53.584;9.968;2023-07-02T07:45:57;9.37;;;7.23;;
938;SDS011;456;53.584;9.968;2023-07-02T07:48:24;8.20;;;6.60;;
938;SDS011;456;53.584;9.968;2023-07-02T07:50:50;9.77;;;7.40;;
938;SDS011;456;53.584;9.968;2023-07-02T07:53:16;7.50;;;6.13;;
938;SDS011;456;53.584;9.968;2023-07-02T07:55:42;9.97;;;7.27;;
938;SDS011;456;53.584;9.968;2023-07-02T07:58:08;10.07;;;6.80;;
938;SDS011;456;53.584;9.968;2023-07-02T08:00:34;11.27;;;7.43;;
938;SDS011;456;53.584;9.968;2023-07-02T08:03:01;8.00;;;6.77;;
938;SDS011;456;53.584;9.968;2023-07-02T08:05:28;9.00;;;6.10;;
938;SDS011;456;53.584;9.968;2023-07-02T08:07:54;10.73;;;7.07;;
938;SDS011;456;53.584;9.968;2023-07-02T08:10:20;8.80;;;6.77;;
938;SDS011;456;53.584;9.968;2023-07-02T08:12:46;11.87;;;6.60;;
938;SDS011;456;53.584;9.968;2023-07-02T08:15:13;10.17;;;6.83;;
938;SDS011;456;53.584;9.968;2023-07-02T08:17:39;7.67;;;6.60;;
938;SDS011;456;53.584;9.968;2023-07-02T08:20:05;10.80;;;7.30;;
938;SDS011;456;53.584;9.968;2023-07-02T08:22:34;7.33;;;6.27;;
938;SDS011;456;53.584;9.968;2023-07-02T08:25:01;8.33;;;5.43;;
938;SDS011;456;53.584;9.968;2023-07-02T08:27:27;9.37;;;6.40;;
938;SDS011;456;53.584;9.968;2023-07-02T08:29:53;8.83;;;6.70;;
938;SDS011;456;53.584;9.968;2023-07-02T08:32:19;93.30;;;22.40;;
938;SDS011;456;53.584;9.968;2023-07-02T08:34:45;65.47;;;15.00;;
938;SDS011;456;53.584;9.968;2023-07-02T08:37:11;34.60;;;12.10;;
938;SDS011;456;53.584;9.968;2023-07-02T08:39:37;45.70;;;13.00;;
938;SDS011;456;53.584;9.968;2023-07-02T08:42:04;32.30;;;13.13;;
938;SDS011;456;53.584;9.968;2023-07-02T08:44:31;24.13;;;11.07;;
938;SDS011;456;53.584;9.968;2023-07-02T08:46:57;22.10;;;10.40;;
938;SDS011;456;53.584;9.968;2023-07-02T08:49:23;22.07;;;10.03;;
938;SDS011;456;53.584;9.968;2023-07-02T08:51:49;21.50;;;10.40;;
938;SDS011;456;53.584;9.968;2023-07-02T08:54:17;21.60;;;10.33;;
938;SDS011;456;53.584;9.968;2023-07-02T08:56:44;18.60;;;9.63;;
938;SDS011;456;53.584;9.968;2023-07-02T08:59:11;17.90;;;8.67;;
938;SDS011;456;53.584;9.968;2023-07-02T09:01:46;12.60;;;7.90;;
938;SDS011;456;53.584;9.968;2023-07-02T09:04:22;18.33;;;8.97;;
938;SDS011;456;53.584;9.968;2023-07-02T09:07:03;15.07;;;8.20;;
938;SDS011;456;53.584;9.968;2023-07-02T09:09:29;12.57;;;8.03;;
938;SDS011;456;53.584;9.968;2023-07-02T09:11:55;11.47;;;7.50;;
938;SDS011;456;53.584;9.968;2023-07-02T09:14:28;13.57;;;7.70;;
938;SDS011;456;53.584;9.968;2023-07-02T09:17:01;13.27;;;7.10;;
938;SDS011;456;53.584;9.968;2023-07-02T09:19:27;11.83;;;8.97;;
938;SDS011;456;53.584;9.968;2023-07-02T09:21:53;12.97;;;9.83;;
938;SDS011;456;53.584;9.968;2023-07-02T09:24:23;11.87;;;8.60;;
938;SDS011;456;53.584;9.968;2023-07-02T09:26:52;12.13;;;10.10;;
938;SDS011;456;53.584;9.968;2023-07-02T09:29:28;15.70;;;9.57;;
938;SDS011;456;53.584;9.968;2023-07-02T09:31:55;11.20;;;9.60;;
938;SDS011;456;53.584;9.968;2023-07-02T09:34:26;16.87;;;9.70;;
938;SDS011;456;53.584;9.968;2023-07-02T09:36:53;15.50;;;9.87;;
938;SDS011;456;53.584;9.968;2023-07-02T09:39:19;12.10;;;9.83;;
938;SDS011;456;53.584;9.968;2023-07-02T09:41:48;15.50;;;10.10;;
938;SDS011;456;53.584;9.968;2023-07-02T09:44:15;16.20;;;11.00;;
938;SDS011;456;53.584;9.968;2023-07-02T09:46:44;13.27;;;9.37;;
938;SDS011;456;53.584;9.968;2023-07-02T09:49:12;19.23;;;10.87;;
938;SDS011;456;53.584;9.968;2023-07-02T09:51:40;13.17;;;9.13;;
938;SDS011;456;53.584;9.968;2023-07-02T09:54:07;13.10;;;10.47;;
938;SDS011;456;53.584;9.968;2023-07-02T09:56:33;13.20;;;9.80;;
938;SDS011;456;53.584;9.968;2023-07-02T09:58:59;10.90;;;9.00;;
938;SDS011;456;53.584;9.968;2023-07-02T10:01:25;11.50;;;10.20;;
938;SDS011;456;53.584;9.968;2023-07-02T10:03:51;13.90;;;10.60;;
938;SDS011;456;53.584;9.968;2023-07-02T10:06:17;13.67;;;12.03;;
938;SDS011;456;53.584;9.968;2023-07-02T10:08:53;15.43;;;12.07;;
938;SDS011;456;53.584;9.968;2023-07-02T10:11:19;14.43;;;11.30;;
938;SDS011;456;53.584;9.968;2023-07-02T10:13:45;15.33;;;12.63;;
938;SDS011;456;53.584;9.968;2023-07-02T10:16:11;12.87;;;10.77;;
938;SDS011;456;53.584;9.968;2023-07-02T10:18:38;13.20;;;11.47;;
938;SDS011;456;53.584;9.968;2023-07-02T10:21:17;13.07;;;11.20;;
938;SDS011;456;53.584;9.968;2023-07-02T10:23:43;11.47;;;9.60;;
938;SDS011;456;53.584;9.968;2023-07-02T10:26:10;13.10;;;10.47;;
938;SDS011;456;53.584;9.968;2023-07-02T10:28:36;10.90;;;9.80;;
938;SDS011;456;53.584;9.968;2023-07-02T10:31:02;13.13;;;10.40;;
938;SDS011;456;53.584;9.968;2023-07-02T10:33:28;12.17;;;10.70;;
938;SDS011;456;53.584;9.968;2023-07-02T10:35:54;12.10;;;9.67;;
938;SDS011;456;53.584;9.968;2023-07-02T10:38:20;11.80;;;9.47;;
938;SDS011;456;53.584;9.968;2023-07-02T10:40:46;9.80;;;8.80;;
938;SDS011;456;53.584;9.968;2023-07-02T10:43:13;9.27;;;8.10;;
938;SDS011;456;53.584;9.968;2023-07-02T10:45:40;11.20;;;8.87;;
938;SDS011;456;53.584;9.968;2023-07-02T10:48:09;10.67;;;8.00;;
938;SDS011;456;53.584;9.968;2023-07-02T10:50:35;9.17;;;8.30;;
938;SDS011;456;53.584;9.968;2023-07-02T10:53:02;9.30;;;8.40;;
938;SDS011;456;53.584;9.968;2023-07-02T10:55:28;10.47;;;8.67;;
938;SDS011;456;53.584;9.968;2023-07-02T10:58:03;10.73;;;8.60;;
938;SDS011;456;53.584;9.968;2023-07-02T11:00:29;9.13;;;8.23;;
938;SDS011;456;53.584;9.968;2023-07-02T11:02:55;8.10;;;7.30;;
938;SDS011;456;53.584;9.968;2023-07-02T11:05:21;9.97;;;8.20;;
938;SDS011;456;53.584;9.968;2023-07-02T11:07:47;9.53;;;8.50;;
938;SDS011;456;53.584;9.968;2023-07-02T11:10:19;11.50;;;8.53;;
938;SDS011;456;53.584;9.968;2023-07-02T11:12:45;8.77;;;8.00;;
938;SDS011;456;53.584;9.968;2023-07-02T11:15:14;10.03;;;8.07;;
938;SDS011;456;53.584;9.968;2023-07-02T11:17:42;10.57;;;8.60;;
938;SDS011;456;53.584;9.968;2023-07-02T11:20:09;9.50;;;7.73;;
938;SDS011;456;53.584;9.968;2023-07-02T11:22:36;8.07;;;7.27;;
938;SDS011;456;53.584;9.968;2023-07-02T11:25:09;8.27;;;7.33;;
938;SDS011;456;53.584;9.968;2023-07-02T11:27:35;8.83;;;7.50;;
938;SDS011;456;53.584;9.968;2023-07-02T11:30:01;8.97;;;7.17;;
938;SDS011;456;53.584;9.968;2023-07-02T11:32:27;7.70;;;6.70;;
938;SDS011;456;53.584;9.968;2023-07-02T11:34:53;7.40;;;6.70;;
938;SDS011;456;53.584;9.968;2023-07-02T11:37:19;8.53;;;6.50;;
938;SDS011;456;53.584;9.968;2023-07-02T11:39:45;7.63;;;6.33;;
938;SDS011;456;53.584;9.968;2023-07-02T11:42:11;7.63;;;6.07;;
938;SDS011;456;53.584;9.968;2023-07-02T11:44:38;6.70;;;5.80;;
938;SDS011;456;53.584;9.968;2023-07-02T11:47:04;7.17;;;5.97;;
938;SDS011;456;53.584;9.968;2023-07-02T11:49:30;7.93;;;6.97;;
938;SDS011;456;53.584;9.968;2023-07-02T11:51:56;7.60;;;6.30;;
938;SDS011;456;53.584;9.968;2023-07-02T11:54:22;5.47;;;4.80;;
938;SDS011;456;53.584;9.968;2023-07-02T11:56:48;8.70;;;6.17;;
938;SDS011;456;53.584;9.968;2023-07-02T11:59:14;8.10;;;5.27;;
938;SDS011;456;53.584;9.968;2023-07-02T12:01:40;7.30;;;5.80;;
938;SDS011;456;53.584;9.968;2023-07-02T12:04:06;6.40;;;5.63;;
938;SDS011;456;53.584;9.968;2023-07-02T12:06:32;5.60;;;5.10;;
938;SDS011;456;53.584;9.968;2023-07-02T12:08:58;5.30;;;4.80;;
938;SDS011;456;53.584;9.968;2023-07-02T12:11:25;9.47;;;5.40;;
938;SDS011;456;53.584;9.968;2023-07-02T12:13:51;6.50;;;5.33;;
938;SDS011;456;53.584;9.968;2023-07-02T12:16:17;7.10;;;5.30;;
938;SDS011;456;53.584;9.968;2023-07-02T12:18:43;7.00;;;4.30;;
938;SDS011;456;53.584;9.968;2023-07-02T12:21:08;5.50;;;4.20;;
938;SDS011;456;53.584;9.968;2023-07-02T12:23:34;6.50;;;5.30;;
938;SDS011;456;53.584;9.968;2023-07-02T12:26:00;8.40;;;4.50;;
938;SDS011;456;53.584;9.968;2023-07-02T12:28:26;5.23;;;4.73;;
938;SDS011;456;53.584;9.968;2023-07-02T12:30:52;6.10;;;4.70;;
938;SDS011;456;53.584;9.968;2023-07-02T12:33:18;5.17;;;4.17;;
938;SDS011;456;53.584;9.968;2023-07-02T12:35:44;4.33;;;3.87;;
938;SDS011;456;53.584;9.968;2023-07-02T12:38:10;4.50;;;4.10;;
938;SDS011;456;53.584;9.968;2023-07-02T12:40:36;4.70;;;4.03;;
938;SDS011;456;53.584;9.968;2023-07-02T12:43:02;6.93;;;4.57;;
938;SDS011;456;53.584;9.968;2023-07-02T12:45:28;5.50;;;4.30;;
938;SDS011;456;53.584;9.968;2023-07-02T12:47:56;4.90;;;3.90;;
938;SDS011;456;53.584;9.968;2023-07-02T12:50:22;6.70;;;4.17;;
938;SDS011;456;53.584;9.968;2023-07-02T12:52:48;4.43;;;4.03;;
938;SDS011;456;53.584;9.968;2023-07-02T12:55:14;4.47;;;3.90;;
938;SDS011;456;53.584;9.968;2023-07-02T12:57:40;6.13;;;4.30;;
938;SDS011;456;53.584;9.968;2023-07-02T13:00:06;5.60;;;4.20;;
938;SDS011;456;53.584;9.968;2023-07-02T13:02:33;5.20;;;3.50;;
938;SDS011;456;53.584;9.968;2023-07-02T13:05:00;4.70;;;4.17;;
938;SDS011;456;53.584;9.968;2023-07-02T13:07:26;4.83;;;4.10;;
938;SDS011;456;53.584;9.968;2023-07-02T13:09:54;5.33;;;3.77;;
938;SDS011;456;53.584;9.968;2023-07-02T13:12:21;5.47;;;3.87;;
938;SDS011;456;53.584;9.968;2023-07-02T13:14:47;4.97;;;4.00;;
938;SDS011;456;53.584;9.968;2023-07-02T13:17:13;5.60;;;3.93;;
938;SDS011;456;53.584;9.968;2023-07-02T13:19:39;5.20;;;4.63;;
938;SDS011;456;53.584;9.968;2023-07-02T13:22:05;6.20;;;4.40;;
938;SDS011;456;53.584;9.968;2023-07-02T13:24:34;4.20;;;3.60;;
938;SDS011;456;53.584;9.968;2023-07-02T13:27:02;5.47;;;4.03;;
938;SDS011;456;53.584;9.968;2023-07-02T13:29:28;4.20;;;3.70;;
938;SDS011;456;53.584;9.968;2023-07-02T13:31:54;7.00;;;3.90;;
938;SDS011;456;53.584;9.968;2023-07-02T13:34:20;4.67;;;3.33;;
938;SDS011;456;53.584;9.968;2023-07-02T13:36:46;3.50;;;3.17;;
938;SDS011;456;53.584;9.968;2023-07-02T13:39:12;5.13;;;4.13;;
938;SDS011;456;53.584;9.968;2023-07-02T13:41:38;4.40;;;3.77;;
938;SDS011;456;53.584;9.968;2023-07-02T13:44:04;4.13;;;3.00;;
938;SDS011;456;53.584;9.968;2023-07-02T13:46:30;4.70;;;3.33;;
938;SDS011;456;53.584;9.968;2023-07-02T13:48:56;6.57;;;4.10;;
938;SDS011;456;53.584;9.968;2023-07-02T13:51:22;4.70;;;3.57;;
938;SDS011;456;53.584;9.968;2023-07-02T13:53:48;5.30;;;3.80;;
938;SDS011;456;53.584;9.968;2023-07-02T13:56:14;4.70;;;3.63;;
938;SDS011;456;53.584;9.968;2023-07-02T14:01:22;4.23;;;3.63;;
938;SDS011;456;53.584;9.968;2023-07-02T14:03:48;4.30;;;3.83;;
938;SDS011;456;53.584;9.968;2023-07-02T14:06:14;4.30;;;3.23;;
938;SDS011;456;53.584;9.968;2023-07-02T14:08:40;3.57;;;3.00;;
938;SDS011;456;53.584;9.968;2023-07-02T14:11:06;6.77;;;3.40;;
938;SDS011;456;53.584;9.968;2023-07-02T14:13:32;4.50;;;3.20;;
938;SDS011;456;53.584;9.968;2023-07-02T14:15:59;5.20;;;3.70;;
938;SDS011;456;53.584;9.968;2023-07-02T14:18:25;5.50;;;3.80;;
938;SDS011;456;53.584;9.968;2023-07-02T14:20:51;5.10;;;3.57;;
938;SDS011;456;53.584;9.968;2023-07-02T14:23:17;5.33;;;3.83;;
938;SDS011;456;53.584;9.968;2023-07-02T14:25:43;4.37;;;3.40;;
938;SDS011;456;53.584;9.968;2023-07-02T14:28:09;4.50;;;3.50;;
938;SDS011;456;53.584;9.968;2023-07-02T14:30:35;4.20;;;3.63;;
938;SDS011;456;53.584;9.968;2023-07-02T14:33:02;3.67;;;3.30;;
938;SDS011;456;53.584;9.968;2023-07-02T14:35:28;5.50;;;3.50;;
938;SDS011;456;53.584;9.968;2023-07-02T14:37:56;5.50;;;3.77;;
938;SDS011;456;53.584;9.968;2023-07-02T14:40:22;6.00;;;3.10;;
938;SDS011;456;53.584;9.968;2023-07-02T14:42:48;3.77;;;3.20;;
938;SDS011;456;53.584;9.968;2023-07-02T14:45:14;3.63;;;3.23;;
938;SDS011;456;53.584;9.968;2023-07-02T14:47:40;6.70;;;3.77;;
938;SDS011;456;53.584;9.968;2023-07-02T14:50:06;4.73;;;4.10;;
938;SDS011;456;53.584;9.968;2023-07-02T14:52:32;5.10;;;3.57;;
938;SDS011;456;53.584;9.968;2023-07-02T14:54:58;4.63;;;3.53;;
938;SDS011;456;53.584;9.968;2023-07-02T14:57:26;4.50;;;3.87;;
938;SDS011;456;53.584;9.968;2023-07-02T14:59:52;5.10;;;3.60;;
938;SDS011;456;53.584;9.968;2023-07-02T15:02:19;5.03;;;3.80;;
938;SDS011;456;53.584;9.968;2023-07-02T15:04:45;7.77;;;4.00;;
938;SDS011;456;53.584;9.968;2023-07-02T15:07:11;4.70;;;3.47;;
938;SDS011;456;53.584;9.968;2023-07-02T15:09:37;5.30;;;4.03;;
938;SDS011;456;53.584;9.968;2023-07-02T15:12:03;6.50;;;3.97;;
938;SDS011;456;53.584;9.968;2023-07-02T15:14:29;5.23;;;4.33;;
938;SDS011;456;53.584;9.968;2023-07-02T15:16:55;4.27;;;3.27;;
938;SDS011;456;53.584;9.968;2023-07-02T15:19:21;6.87;;;4.23;;
938;SDS011;456;53.584;9.968;2023-07-02T15:21:49;4.50;;;3.23;;
938;SDS011;456;53.584;9.968;2023-07-02T15:24:15;6.07;;;3.80;;
938;SDS011;456;53.584;9.968;2023-07-02T15:26:41;5.90;;;4.00;;
938;SDS011;456;53.584;9.968;2023-07-02T15:29:07;5.00;;;3.47;;
938;SDS011;456;53.584;9.968;2023-07-02T15:31:34;5.57;;;3.67;;
938;SDS011;456;53.584;9.968;2023-07-02T15:34:02;4.97;;;3.87;;
938;SDS011;456;53.584;9.968;2023-07-02T15:36:28;7.43;;;3.60;;
938;SDS011;456;53.584;9.968;2023-07-02T15:39:00;5.23;;;4.20;;
938;SDS011;456;53.584;9.968;2023-07-02T15:41:26;4.60;;;3.67;;